createdAt,value
2023-04-05T00:00:26.628Z,10.70
2023-04-05T00:00:58.728Z,7.75
2023-04-05T00:01:32.483Z,7.47
2023-04-05T00:02:05.316Z,8.18
2023-04-05T00:02:40.592Z,9.60
2023-04-05T00:03:13.567Z,8.68
2023-04-05T00:03:47.361Z,9.65
2023-04-05T00:04:21.091Z,7.65
2023-04-05T00:04:57.535Z,9.32
2023-04-05T00:05:30.367Z,8.55
2023-04-05T00:06:02.769Z,8.30
2023-04-05T00:06:37.695Z,8.85
2023-04-05T00:07:09.524Z,8.27
2023-04-05T00:07:41.361Z,8.18
2023-04-05T00:08:24.205Z,8.48
2023-04-05T00:08:57.177Z,8.85
2023-04-05T00:09:29.086Z,8.65
2023-04-05T00:10:02.030Z,8.40
2023-04-05T00:10:34.238Z,8.90
2023-04-05T00:11:06.087Z,7.90
2023-04-05T00:11:38.919Z,8.70
2023-04-05T00:12:10.920Z,10.05
2023-04-05T00:12:42.740Z,9.38
2023-04-05T00:13:15.658Z,9.85
2023-04-05T00:13:47.484Z,8.20
2023-04-05T00:14:19.322Z,8.70
2023-04-05T00:14:52.188Z,8.35
2023-04-05T00:15:26.461Z,8.57
2023-04-05T00:16:00.739Z,9.15
2023-04-05T00:16:34.430Z,8.38
2023-04-05T00:17:06.769Z,8.25
2023-04-05T00:17:38.641Z,8.07
2023-04-05T00:18:21.492Z,9.35
2023-04-05T00:18:55.026Z,7.68
2023-04-05T00:19:26.846Z,8.88
2023-04-05T00:19:58.631Z,8.02
2023-04-05T00:20:31.376Z,7.65
2023-04-05T00:21:03.252Z,8.30
2023-04-05T00:21:35.038Z,8.55
2023-04-05T00:22:10.435Z,8.88
2023-04-05T00:22:44.509Z,8.75
2023-04-05T00:23:17.363Z,8.73
2023-04-05T00:23:51.392Z,7.93
2023-04-05T00:24:24.263Z,8.60
2023-04-05T00:24:56.038Z,8.85
2023-04-05T00:25:28.863Z,9.10
2023-04-05T00:26:01.079Z,8.57
2023-04-05T00:26:32.946Z,8.30
2023-04-05T00:27:06.002Z,9.55
2023-04-05T00:27:37.859Z,8.52
2023-04-05T00:28:09.711Z,8.90
2023-04-05T00:28:42.566Z,8.98
2023-04-05T00:29:14.451Z,9.07
2023-04-05T00:29:46.253Z,9.82
2023-04-05T00:30:20.934Z,8.18
2023-04-05T00:30:54.122Z,8.73
2023-04-05T00:31:26.024Z,8.55
2023-04-05T00:31:58.909Z,9.05
2023-04-05T00:32:31.032Z,8.25
2023-04-05T00:33:03.032Z,8.05
2023-04-05T00:33:35.232Z,8.32
2023-04-05T00:34:09.250Z,8.88
2023-04-05T00:34:41.193Z,8.38
2023-04-05T00:35:13.155Z,8.57
2023-04-05T00:35:45.938Z,8.73
2023-04-05T00:36:19.554Z,8.35
2023-04-05T00:36:52.586Z,8.40
2023-04-05T00:37:24.383Z,8.38
2023-04-05T00:37:57.236Z,8.60
2023-04-05T00:38:30.023Z,8.43
2023-04-05T00:39:01.888Z,10.30
2023-04-05T00:39:34.707Z,8.57
2023-04-05T00:40:07.938Z,8.88
2023-04-05T00:40:39.873Z,8.38
2023-04-05T00:41:12.793Z,9.10
2023-04-05T00:41:48.221Z,9.18
2023-04-05T00:42:20.668Z,9.02
2023-04-05T00:42:52.558Z,9.00
2023-04-05T00:43:24.374Z,9.50
2023-04-05T00:43:57.726Z,9.10
2023-04-05T00:44:29.559Z,8.82
2023-04-05T00:45:01.394Z,8.52
2023-04-05T00:45:34.589Z,9.52
2023-04-05T00:46:08.882Z,9.70
2023-04-05T00:46:42.296Z,9.52
2023-04-05T00:47:14.576Z,9.48
2023-04-05T00:47:46.514Z,9.73
2023-04-05T00:48:19.381Z,8.77
2023-04-05T00:48:51.353Z,10.07
2023-04-05T00:49:23.155Z,10.43
2023-04-05T00:49:55.957Z,9.60
2023-04-05T00:50:30.714Z,9.98
2023-04-05T00:51:02.934Z,9.57
2023-04-05T00:51:36.493Z,9.10
2023-04-05T00:52:08.504Z,10.07
2023-04-05T00:52:41.617Z,9.90
2023-04-05T00:53:14.768Z,9.43
2023-04-05T00:53:48.030Z,8.43
2023-04-05T00:54:19.965Z,9.30
2023-04-05T00:54:53.421Z,9.07
2023-04-05T00:55:26.544Z,9.55
2023-04-05T00:55:58.458Z,8.77
2023-04-05T00:56:32.195Z,9.50
2023-04-05T00:57:06.011Z,9.18
2023-04-05T00:57:39.081Z,10.73
2023-04-05T00:58:12.616Z,9.57
2023-04-05T00:58:44.440Z,9.80
2023-04-05T00:59:17.263Z,9.18
2023-04-05T00:59:49.075Z,9.57
2023-04-05T01:00:21.491Z,9.65
2023-04-05T01:01:01.534Z,9.77
2023-04-05T01:01:38.091Z,9.52
2023-04-05T01:02:16.901Z,9.25
2023-04-05T01:02:51.986Z,9.15
2023-04-05T01:03:26.153Z,10.30
2023-04-05T01:04:02.780Z,8.85
2023-04-05T01:04:37.836Z,8.50
2023-04-05T01:05:18.889Z,9.85
2023-04-05T01:06:03.143Z,9.45
2023-04-05T01:06:44.681Z,9.05
2023-04-05T01:07:23.576Z,9.43
2023-04-05T01:08:06.791Z,9.63
2023-04-05T01:08:45.806Z,10.55
2023-04-05T01:09:29.514Z,10.02
2023-04-05T01:10:05.055Z,10.27
2023-04-05T01:10:42.738Z,9.75
2023-04-05T01:11:17.198Z,9.52
2023-04-05T01:11:49.604Z,9.82
2023-04-05T01:12:25.962Z,9.68
2023-04-05T01:12:58.332Z,9.13
2023-04-05T01:13:30.693Z,9.88
2023-04-05T01:14:03.474Z,10.90
2023-04-05T01:14:47.790Z,9.52
2023-04-05T01:15:20.638Z,10.70
2023-04-05T01:15:52.746Z,9.05
2023-04-05T01:16:24.621Z,9.50
2023-04-05T01:16:58.958Z,10.85
2023-04-05T01:17:36.675Z,9.85
2023-04-05T01:18:10.465Z,10.35
2023-04-05T01:18:46.514Z,9.40
2023-04-05T01:19:18.946Z,9.80
2023-04-05T01:19:54.267Z,11.88
2023-04-05T01:20:28.260Z,10.98
2023-04-05T01:21:20.912Z,9.85
2023-04-05T01:22:26.542Z,9.25
2023-04-05T01:23:30.954Z,9.70
2023-04-05T01:24:16.131Z,10.45
2023-04-05T01:25:10.636Z,9.38
2023-04-05T01:26:37.318Z,9.18
2023-04-05T01:27:14.456Z,10.77
2023-04-05T01:28:11.791Z,9.60
2023-04-05T01:29:29.276Z,9.48
2023-04-05T01:30:06.610Z,10.07
2023-04-05T01:30:42.314Z,9.73
2023-04-05T01:31:23.824Z,9.13
2023-04-05T01:32:00.381Z,9.35
2023-04-05T01:32:47.359Z,9.32
2023-04-05T01:33:26.668Z,9.93
2023-04-05T01:34:03.511Z,9.70
2023-04-05T01:34:41.323Z,10.45
2023-04-05T01:35:23.323Z,10.55
2023-04-05T01:36:01.824Z,10.25
2023-04-05T01:36:40.873Z,10.30
2023-04-05T01:37:15.776Z,8.95
2023-04-05T01:37:52.855Z,10.45
2023-04-05T01:38:27.161Z,10.40
2023-04-05T01:39:00.308Z,10.85
2023-04-05T01:39:34.639Z,9.98
2023-04-05T01:40:08.872Z,10.10
2023-04-05T01:40:42.003Z,10.57
2023-04-05T01:41:14.783Z,10.75
2023-04-05T01:41:47.754Z,11.00
2023-04-05T01:42:25.241Z,10.00
2023-04-05T01:42:57.267Z,10.23
2023-04-05T01:43:30.047Z,9.27
2023-04-05T01:44:02.099Z,10.70
2023-04-05T01:44:33.929Z,10.85
2023-04-05T01:45:09.344Z,10.38
2023-04-05T01:45:41.332Z,10.77
2023-04-05T01:46:13.146Z,10.07
2023-04-05T01:46:45.582Z,10.38
2023-04-05T01:47:18.422Z,10.48
2023-04-05T01:47:50.310Z,9.40
2023-04-05T01:48:22.168Z,11.20
2023-04-05T01:48:54.941Z,10.02
2023-04-05T01:49:26.923Z,10.18
2023-04-05T01:49:58.781Z,9.95
2023-04-05T01:50:31.931Z,11.45
2023-04-05T01:51:04.077Z,9.95
2023-04-05T01:51:36.316Z,9.38
2023-04-05T01:52:09.141Z,9.50
2023-04-05T01:52:40.979Z,10.25
2023-04-05T01:53:12.777Z,9.90
2023-04-05T01:53:45.590Z,9.85
2023-04-05T01:54:17.534Z,10.38
2023-04-05T01:54:49.301Z,11.85
2023-04-05T01:55:22.042Z,9.82
2023-04-05T01:55:53.841Z,10.10
2023-04-05T01:56:25.982Z,10.30
2023-04-05T01:56:58.033Z,11.00
2023-04-05T01:57:30.830Z,9.77
2023-04-05T01:58:02.755Z,9.93
2023-04-05T01:58:34.587Z,10.60
2023-04-05T01:59:07.341Z,9.95
2023-04-05T01:59:39.410Z,9.00
2023-04-05T02:00:13.823Z,9.50
2023-04-05T02:00:46.732Z,9.95
2023-04-05T02:01:18.645Z,9.50
2023-04-05T02:01:51.541Z,10.98
2023-04-05T02:02:23.360Z,10.32
2023-04-05T02:02:56.287Z,10.75
2023-04-05T02:03:28.300Z,10.88
2023-04-05T02:04:00.315Z,9.52
2023-04-05T02:04:32.301Z,10.02
2023-04-05T02:05:05.384Z,10.40
2023-04-05T02:05:37.159Z,10.07
2023-04-05T02:06:08.964Z,10.45
2023-04-05T02:06:42.378Z,9.75
2023-04-05T02:07:15.614Z,9.82
2023-04-05T02:07:47.421Z,10.30
2023-04-05T02:08:19.234Z,10.13
2023-04-05T02:08:52.094Z,10.68
2023-04-05T02:09:23.884Z,10.20
2023-04-05T02:09:55.922Z,10.18
2023-04-05T02:10:28.808Z,10.65
2023-04-05T02:11:00.862Z,9.88
2023-04-05T02:11:32.643Z,9.80
2023-04-05T02:12:05.648Z,10.35
2023-04-05T02:12:37.455Z,9.35
2023-04-05T02:13:09.268Z,10.77
2023-04-05T02:13:42.044Z,11.27
2023-04-05T02:14:14.192Z,10.48
2023-04-05T02:14:45.951Z,9.90
2023-04-05T02:15:20.097Z,11.15
2023-04-05T02:15:52.012Z,9.32
2023-04-05T02:16:25.601Z,10.05
2023-04-05T02:16:58.428Z,9.43
2023-04-05T02:17:33.865Z,10.60
2023-04-05T02:18:07.844Z,10.20
2023-04-05T02:18:39.928Z,10.18
2023-04-05T02:19:13.084Z,11.57
2023-04-05T02:19:46.198Z,10.95
2023-04-05T02:20:18.404Z,10.00
2023-04-05T02:20:52.192Z,9.52
2023-04-05T02:21:25.969Z,10.73
2023-04-05T02:21:57.771Z,8.98
2023-04-05T02:22:30.676Z,9.70
2023-04-05T02:23:03.027Z,9.43
2023-04-05T02:23:35.447Z,9.85
2023-04-05T02:24:08.597Z,10.02
2023-04-05T02:24:41.254Z,9.40
2023-04-05T02:25:13.292Z,8.95
2023-04-05T02:25:46.422Z,9.90
2023-04-05T02:26:18.343Z,9.60
2023-04-05T02:26:51.124Z,9.13
2023-04-05T02:27:24.055Z,9.23
2023-04-05T02:27:55.929Z,9.90
2023-04-05T02:28:27.758Z,9.75
2023-04-05T02:29:00.602Z,9.52
2023-04-05T02:29:32.404Z,10.43
2023-04-05T02:30:05.431Z,8.35
2023-04-05T02:30:39.935Z,9.60
2023-04-05T02:31:12.264Z,9.32
2023-04-05T02:31:44.132Z,9.77
2023-04-05T02:32:16.981Z,9.68
2023-04-05T02:32:48.842Z,10.18
2023-04-05T02:33:22.722Z,8.75
2023-04-05T02:33:55.996Z,8.88
2023-04-05T02:34:28.026Z,9.80
2023-04-05T02:34:59.847Z,10.48
2023-04-05T02:35:32.601Z,9.57
2023-04-05T02:36:05.458Z,9.52
2023-04-05T02:36:37.364Z,9.10
2023-04-05T02:37:10.323Z,9.52
2023-04-05T02:37:42.720Z,8.07
2023-04-05T02:38:14.634Z,9.73
2023-04-05T02:38:47.388Z,8.90
2023-04-05T02:39:19.234Z,10.00
2023-04-05T02:39:51.047Z,9.55
2023-04-05T02:40:24.009Z,9.00
2023-04-05T02:40:56.159Z,9.15
2023-04-05T02:41:28.016Z,10.15
2023-04-05T02:42:01.162Z,8.77
2023-04-05T02:42:32.965Z,8.93
2023-04-05T02:43:05.034Z,9.40
2023-04-05T02:43:36.861Z,9.02
2023-04-05T02:44:09.626Z,9.65
2023-04-05T02:44:41.627Z,9.45
2023-04-05T02:45:13.423Z,8.85
2023-04-05T02:45:47.600Z,10.02
2023-04-05T02:46:19.556Z,8.88
2023-04-05T02:46:51.660Z,8.35
2023-04-05T02:47:24.555Z,9.18
2023-04-05T02:47:56.455Z,8.85
2023-04-05T02:48:28.380Z,8.70
2023-04-05T02:49:01.194Z,8.68
2023-04-05T02:49:32.974Z,8.30
2023-04-05T02:50:05.943Z,8.45
2023-04-05T02:50:37.787Z,8.73
2023-04-05T02:51:10.631Z,8.82
2023-04-05T02:51:42.396Z,8.40
2023-04-05T02:52:14.267Z,9.68
2023-04-05T02:52:47.513Z,8.60
2023-04-05T02:53:19.351Z,9.35
2023-04-05T02:53:51.160Z,9.70
2023-04-05T02:54:23.926Z,9.30
2023-04-05T02:54:55.753Z,7.75
2023-04-05T02:55:29.370Z,9.02
2023-04-05T02:56:02.139Z,9.40
2023-04-05T02:56:34.042Z,10.75
2023-04-05T02:57:06.046Z,7.85
2023-04-05T02:57:38.786Z,8.18
2023-04-05T02:58:10.671Z,8.82
2023-04-05T02:58:43.090Z,9.02
2023-04-05T02:59:15.985Z,8.45
2023-04-05T02:59:47.860Z,9.57
2023-04-05T03:00:20.582Z,8.35
2023-04-05T03:00:56.180Z,7.68
2023-04-05T03:01:29.586Z,9.70
2023-04-05T03:02:01.602Z,8.93
2023-04-05T03:02:33.482Z,8.52
2023-04-05T03:03:06.357Z,8.73
2023-04-05T03:03:40.328Z,9.25
2023-04-05T03:04:12.396Z,9.15
2023-04-05T03:04:46.475Z,9.05
2023-04-05T03:05:18.675Z,8.38
2023-04-05T03:06:01.375Z,8.85
2023-04-05T03:06:34.174Z,8.75
2023-04-05T03:07:06.091Z,8.50
2023-04-05T03:07:38.251Z,9.13
2023-04-05T03:08:18.377Z,8.82
2023-04-05T03:08:50.214Z,9.75
2023-04-05T03:09:22.371Z,8.38
2023-04-05T03:09:55.270Z,8.38
2023-04-05T03:10:28.987Z,8.85
2023-04-05T03:11:00.887Z,9.00
2023-04-05T03:11:33.993Z,8.90
2023-04-05T03:12:07.067Z,8.80
2023-04-05T03:12:38.908Z,9.63
2023-04-05T03:13:10.844Z,9.93
2023-04-05T03:13:43.654Z,9.45
2023-04-05T03:14:15.537Z,8.65
2023-04-05T03:14:47.378Z,8.57
2023-04-05T03:15:20.433Z,9.13
2023-04-05T03:15:55.321Z,9.02
2023-04-05T03:16:27.419Z,10.43
2023-04-05T03:16:59.302Z,9.13
2023-04-05T03:17:32.245Z,9.10
2023-04-05T03:18:04.521Z,8.80
2023-04-05T03:18:36.299Z,9.65
2023-04-05T03:19:09.088Z,9.02
2023-04-05T03:19:40.907Z,9.52
2023-04-05T03:20:13.258Z,9.60
2023-04-05T03:20:46.150Z,10.77
2023-04-05T03:21:18.139Z,10.00
2023-04-05T03:21:50.313Z,10.02
2023-04-05T03:22:23.116Z,9.90
2023-04-05T03:22:54.900Z,9.68
2023-04-05T03:23:29.536Z,9.35
2023-04-05T03:24:02.840Z,9.45
2023-04-05T03:24:34.635Z,9.90
2023-04-05T03:25:07.234Z,10.15
2023-04-05T03:25:41.498Z,10.02
2023-04-05T03:26:14.004Z,10.15
2023-04-05T03:26:46.902Z,10.57
2023-04-05T03:27:19.805Z,9.90
2023-04-05T03:27:52.807Z,9.95
2023-04-05T03:28:25.484Z,9.95
2023-04-05T03:28:58.247Z,10.40
2023-04-05T03:29:30.318Z,10.55
2023-04-05T03:30:02.218Z,10.38
2023-04-05T03:30:35.262Z,11.02
2023-04-05T03:31:08.464Z,10.13
2023-04-05T03:31:40.285Z,9.55
2023-04-05T03:32:13.865Z,9.90
2023-04-05T03:32:46.101Z,10.52
2023-04-05T03:33:18.181Z,10.20
2023-04-05T03:33:51.077Z,9.98
2023-04-05T03:34:22.913Z,9.90
2023-04-05T03:34:54.724Z,10.27
2023-04-05T03:35:26.866Z,9.95
2023-04-05T03:36:00.805Z,10.18
2023-04-05T03:36:41.723Z,9.65
2023-04-05T03:37:13.580Z,10.20
2023-04-05T03:37:45.589Z,11.15
2023-04-05T03:38:18.823Z,10.93
2023-04-05T03:38:51.699Z,8.75
2023-04-05T03:39:23.661Z,9.70
2023-04-05T03:39:57.296Z,10.48
2023-04-05T03:40:29.344Z,9.85
2023-04-05T03:41:01.996Z,9.85
2023-04-05T03:41:34.783Z,10.35
2023-04-05T03:42:06.618Z,10.00
2023-04-05T03:42:38.427Z,11.10
2023-04-05T03:43:11.384Z,9.27
2023-04-05T03:43:43.215Z,10.32
2023-04-05T03:44:15.247Z,10.23
2023-04-05T03:44:51.884Z,10.95
2023-04-05T03:45:37.888Z,9.75
2023-04-05T03:46:11.983Z,9.10
2023-04-05T03:46:45.214Z,11.30
2023-04-05T03:47:17.164Z,10.15
2023-04-05T03:47:49.039Z,9.20
2023-04-05T03:48:21.807Z,10.13
2023-04-05T03:48:53.646Z,10.40
2023-04-05T03:49:26.172Z,9.32
2023-04-05T03:49:57.985Z,10.38
2023-04-05T03:50:30.820Z,10.98
2023-04-05T03:51:02.658Z,10.82
2023-04-05T03:51:34.514Z,9.90
2023-04-05T03:52:08.384Z,9.82
2023-04-05T03:52:40.561Z,9.75
2023-04-05T03:53:13.346Z,10.30
2023-04-05T03:53:45.327Z,10.13
2023-04-05T03:54:17.237Z,10.32
2023-04-05T03:54:50.043Z,9.30
2023-04-05T03:55:21.878Z,9.60
2023-04-05T03:55:55.596Z,8.77
2023-04-05T03:56:28.617Z,9.82
2023-04-05T03:57:01.125Z,10.13
2023-04-05T03:57:32.990Z,9.25
2023-04-05T03:58:06.107Z,8.98
2023-04-05T03:58:38.422Z,9.48
2023-04-05T03:59:10.282Z,10.23
2023-04-05T03:59:42.264Z,10.00
2023-04-05T04:00:17.201Z,9.40
2023-04-05T04:00:49.011Z,8.90
2023-04-05T04:01:23.161Z,9.77
2023-04-05T04:01:55.300Z,10.90
2023-04-05T04:02:27.187Z,10.65
2023-04-05T04:03:00.321Z,12.40
2023-04-05T04:03:32.167Z,12.60
2023-04-05T04:04:04.928Z,12.52
2023-04-05T04:04:37.845Z,12.73
2023-04-05T04:05:10.219Z,12.38
2023-04-05T04:05:42.649Z,13.25
2023-04-05T04:06:17.123Z,12.63
2023-04-05T04:06:52.384Z,11.32
2023-04-05T04:07:24.183Z,12.20
2023-04-05T04:07:56.009Z,11.95
2023-04-05T04:08:28.792Z,11.13
2023-04-05T04:09:00.759Z,10.45
2023-04-05T04:09:32.574Z,10.85
2023-04-05T04:10:06.589Z,10.00
2023-04-05T04:10:38.422Z,10.63
2023-04-05T04:11:11.121Z,10.48
2023-04-05T04:11:43.902Z,10.75
2023-04-05T04:12:15.739Z,11.00
2023-04-05T04:12:48.526Z,10.88
2023-04-05T04:13:20.325Z,9.80
2023-04-05T04:13:52.997Z,10.10
2023-04-05T04:14:25.814Z,9.52
2023-04-05T04:14:57.689Z,10.25
2023-04-05T04:15:29.474Z,11.20
2023-04-05T04:16:02.267Z,10.38
2023-04-05T04:16:35.482Z,9.77
2023-04-05T04:17:07.361Z,9.05
2023-04-05T04:17:40.887Z,9.43
2023-04-05T04:18:12.710Z,9.52
2023-04-05T04:18:44.514Z,8.93
2023-04-05T04:19:18.123Z,9.65
2023-04-05T04:19:50.959Z,8.93
2023-04-05T04:20:22.774Z,9.88
2023-04-05T04:20:54.591Z,8.63
2023-04-05T04:21:27.891Z,9.68
2023-04-05T04:21:59.673Z,8.88
2023-04-05T04:22:33.137Z,9.60
2023-04-05T04:23:10.255Z,8.95
2023-04-05T04:23:45.849Z,8.55
2023-04-05T04:24:18.627Z,8.85
2023-04-05T04:24:53.480Z,8.63
2023-04-05T04:25:26.470Z,8.23
2023-04-05T04:25:58.263Z,8.30
2023-04-05T04:26:37.383Z,8.70
2023-04-05T04:27:10.508Z,9.65
2023-04-05T04:27:43.924Z,8.48
2023-04-05T04:28:19.564Z,8.25
2023-04-05T04:28:53.030Z,8.90
2023-04-05T04:29:30.857Z,9.45
2023-04-05T04:30:04.456Z,8.60
2023-04-05T04:30:36.416Z,9.43
2023-04-05T04:31:13.376Z,9.00
2023-04-05T04:31:48.388Z,8.68
2023-04-05T04:32:26.689Z,9.05
2023-04-05T04:32:59.723Z,8.35
2023-04-05T04:33:34.460Z,8.30
2023-04-05T04:34:06.613Z,9.15
2023-04-05T04:34:44.537Z,7.85
2023-04-05T04:35:18.316Z,8.30
2023-04-05T04:35:50.690Z,8.60
2023-04-05T04:36:34.523Z,8.63
2023-04-05T04:37:07.371Z,8.20
2023-04-05T04:37:47.197Z,9.50
2023-04-05T04:38:20.537Z,8.25
2023-04-05T04:38:53.305Z,8.93
2023-04-05T04:39:27.298Z,9.38
2023-04-05T04:40:04.130Z,8.48
2023-04-05T04:40:38.896Z,9.23
2023-04-05T04:41:11.066Z,8.57
2023-04-05T04:41:47.042Z,9.23
2023-04-05T04:42:19.808Z,9.35
2023-04-05T04:42:52.063Z,9.05
2023-04-05T04:43:27.510Z,8.00
2023-04-05T04:44:02.738Z,8.55
2023-04-05T04:44:34.543Z,8.60
2023-04-05T04:45:08.037Z,9.43
2023-04-05T04:45:40.149Z,8.40
2023-04-05T04:46:14.933Z,8.35
2023-04-05T04:46:54.662Z,9.43
2023-04-05T04:47:26.495Z,8.45
2023-04-05T04:47:59.869Z,9.40
2023-04-05T04:48:33.126Z,8.90
2023-04-05T04:49:05.920Z,9.05
2023-04-05T04:49:38.713Z,8.93
2023-04-05T04:50:11.732Z,8.77
2023-04-05T04:50:44.087Z,9.15
2023-04-05T04:51:16.864Z,8.55
2023-04-05T04:51:48.649Z,8.77
2023-04-05T04:52:20.444Z,8.43
2023-04-05T04:52:53.214Z,8.80
2023-04-05T04:53:25.104Z,7.50
2023-04-05T04:53:56.935Z,8.18
2023-04-05T04:54:29.686Z,8.55
2023-04-05T04:55:03.093Z,8.57
2023-04-05T04:55:36.133Z,8.38
2023-04-05T04:56:09.572Z,7.10
2023-04-05T04:56:41.372Z,7.95
2023-04-05T04:57:13.187Z,8.18
2023-04-05T04:57:45.932Z,9.25
2023-04-05T04:58:18.113Z,7.85
2023-04-05T04:58:49.960Z,9.10
2023-04-05T04:59:22.836Z,8.13
2023-04-05T04:59:54.891Z,8.25
2023-04-05T05:00:27.721Z,7.40
2023-04-05T05:00:59.927Z,7.85
2023-04-05T05:01:33.969Z,8.15
2023-04-05T05:02:08.210Z,8.77
2023-04-05T05:02:40.589Z,8.55
2023-04-05T05:03:13.434Z,7.47
2023-04-05T05:03:46.390Z,8.55
2023-04-05T05:04:18.295Z,8.15
2023-04-05T05:04:50.200Z,8.35
2023-04-05T05:05:23.471Z,9.88
2023-04-05T05:05:55.427Z,8.07
2023-04-05T05:06:29.608Z,8.75
2023-04-05T05:07:02.404Z,8.45
2023-04-05T05:07:34.407Z,10.13
2023-04-05T05:08:06.231Z,8.45
2023-04-05T05:08:39.035Z,8.32
2023-04-05T05:09:10.890Z,8.57
2023-04-05T05:09:42.724Z,8.25
2023-04-05T05:10:16.371Z,8.10
2023-04-05T05:10:52.996Z,9.15
2023-04-05T05:11:24.873Z,8.15
2023-04-05T05:11:58.996Z,8.90
2023-04-05T05:12:33.038Z,9.10
2023-04-05T05:13:04.942Z,9.00
2023-04-05T05:13:37.737Z,8.85
2023-04-05T05:14:09.555Z,8.43
2023-04-05T05:14:41.425Z,8.35
2023-04-05T05:15:14.194Z,7.93
2023-04-05T05:15:46.640Z,8.63
2023-04-05T05:16:20.485Z,7.80
2023-04-05T05:16:54.529Z,10.38
2023-04-05T05:17:27.758Z,8.38
2023-04-05T05:17:59.826Z,8.82
2023-04-05T05:18:32.693Z,9.00
2023-04-05T05:19:04.480Z,9.55
2023-04-05T05:19:36.323Z,8.27
2023-04-05T05:20:11.869Z,8.10
2023-04-05T05:20:43.857Z,8.85
2023-04-05T05:21:15.768Z,9.10
2023-04-05T05:21:50.035Z,8.45
2023-04-05T05:22:21.869Z,8.30
2023-04-05T05:22:53.955Z,8.85
2023-04-05T05:23:26.719Z,7.90
2023-04-05T05:23:58.517Z,8.73
2023-04-05T05:24:30.330Z,9.75
2023-04-05T05:25:03.195Z,8.07
2023-04-05T05:25:35.166Z,8.00
2023-04-05T05:26:06.956Z,8.48
2023-04-05T05:26:39.709Z,7.90
2023-04-05T05:27:11.504Z,7.80
2023-04-05T05:27:44.317Z,8.55
2023-04-05T05:28:16.650Z,8.75
2023-04-05T05:28:49.174Z,9.20
2023-04-05T05:29:21.971Z,8.60
2023-04-05T05:29:53.837Z,9.50
2023-04-05T05:30:27.033Z,8.70
2023-04-05T05:30:58.943Z,8.75
2023-04-05T05:31:32.863Z,8.27
2023-04-05T05:32:07.417Z,9.43
2023-04-05T05:32:42.561Z,8.95
2023-04-05T05:33:14.490Z,9.05
2023-04-05T05:33:49.868Z,8.93
2023-04-05T05:34:21.975Z,8.00
2023-04-05T05:34:53.847Z,8.93
2023-04-05T05:35:27.642Z,9.18
2023-04-05T05:35:59.549Z,9.30
2023-04-05T05:36:31.952Z,8.25
2023-04-05T05:37:05.160Z,8.10
2023-04-05T05:37:37.389Z,9.48
2023-04-05T05:38:11.312Z,9.13
2023-04-05T05:38:44.754Z,10.00
2023-04-05T05:39:16.662Z,8.45
2023-04-05T05:39:48.477Z,8.57
2023-04-05T05:40:21.254Z,9.52
2023-04-05T05:40:56.377Z,8.98
2023-04-05T05:41:28.192Z,9.23
2023-04-05T05:42:00.994Z,8.80
2023-04-05T05:42:33.935Z,8.10
2023-04-05T05:43:06.812Z,8.75
2023-04-05T05:43:38.657Z,8.68
2023-04-05T05:44:10.477Z,8.95
2023-04-05T05:44:43.267Z,8.07
2023-04-05T05:45:15.361Z,8.05
2023-04-05T05:45:47.324Z,8.75
2023-04-05T05:46:21.492Z,8.57
2023-04-05T05:46:53.325Z,8.85
2023-04-05T05:47:25.352Z,7.72
2023-04-05T05:47:59.543Z,7.28
2023-04-05T05:48:31.454Z,9.05
2023-04-05T05:49:04.303Z,8.52
2023-04-05T05:49:36.092Z,9.07
2023-04-05T05:50:09.962Z,8.60
2023-04-05T05:50:42.832Z,7.55
2023-04-05T05:51:14.810Z,8.82
2023-04-05T05:51:47.258Z,8.43
2023-04-05T05:52:20.056Z,8.23
2023-04-05T05:52:51.982Z,8.10
2023-04-05T05:53:23.868Z,8.20
2023-04-05T05:53:56.646Z,8.32
2023-04-05T05:54:28.504Z,8.45
2023-04-05T05:55:00.718Z,7.60
2023-04-05T05:55:33.634Z,7.53
2023-04-05T05:56:06.214Z,8.10
2023-04-05T05:56:38.023Z,7.45
2023-04-05T05:57:10.875Z,7.90
2023-04-05T05:57:42.692Z,8.10
2023-04-05T05:58:14.541Z,8.15
2023-04-05T05:58:47.888Z,7.57
2023-04-05T05:59:19.763Z,8.55
2023-04-05T05:59:51.664Z,7.28
2023-04-05T06:00:24.571Z,8.15
2023-04-05T06:00:56.504Z,8.65
2023-04-05T06:01:29.224Z,9.35
2023-04-05T06:02:01.958Z,7.60
2023-04-05T06:02:33.788Z,8.35
2023-04-05T06:03:07.286Z,7.65
2023-04-05T06:03:40.364Z,7.75
2023-04-05T06:04:12.635Z,9.02
2023-04-05T06:04:45.387Z,8.30
2023-04-05T06:05:18.430Z,8.52
2023-04-05T06:05:54.261Z,8.85
2023-04-05T06:06:27.125Z,7.63
2023-04-05T06:06:58.984Z,7.60
2023-04-05T06:07:30.891Z,7.82
2023-04-05T06:08:04.380Z,7.88
2023-04-05T06:08:36.184Z,7.65
2023-04-05T06:09:07.973Z,7.55
2023-04-05T06:09:40.732Z,7.47
2023-04-05T06:10:13.233Z,8.07
2023-04-05T06:10:45.063Z,7.85
2023-04-05T06:11:18.856Z,7.30
2023-04-05T06:11:56.316Z,9.23
2023-04-05T06:12:29.054Z,7.85
2023-04-05T06:13:02.093Z,7.97
2023-04-05T06:13:34.055Z,6.45
2023-04-05T06:14:05.854Z,7.57
2023-04-05T06:14:38.620Z,7.72
2023-04-05T06:15:11.097Z,8.55
2023-04-05T06:15:42.992Z,7.88
2023-04-05T06:16:15.830Z,7.45
2023-04-05T06:16:47.626Z,8.82
2023-04-05T06:17:20.387Z,8.32
2023-04-05T06:17:52.227Z,7.88
2023-04-05T06:18:25.497Z,9.43
2023-04-05T06:18:58.800Z,8.38
2023-04-05T06:19:30.789Z,7.30
2023-04-05T06:20:03.604Z,8.63
2023-04-05T06:20:40.314Z,7.82
2023-04-05T06:21:13.244Z,7.65
2023-04-05T06:21:45.304Z,7.70
2023-04-05T06:22:17.940Z,7.35
2023-04-05T06:22:50.737Z,7.55
2023-04-05T06:23:22.567Z,8.02
2023-04-05T06:23:55.381Z,7.80
2023-04-05T06:24:31.570Z,8.52
2023-04-05T06:25:03.465Z,6.60
2023-04-05T06:25:36.525Z,7.28
2023-04-05T06:26:08.384Z,8.05
2023-04-05T06:26:41.173Z,8.55
2023-04-05T06:27:14.549Z,7.88
2023-04-05T06:27:47.341Z,8.27
2023-04-05T06:28:19.125Z,7.50
2023-04-05T06:28:50.947Z,8.20
2023-04-05T06:29:23.739Z,8.35
2023-04-05T06:29:55.734Z,7.57
2023-04-05T06:30:27.538Z,6.85
2023-04-05T06:31:00.587Z,8.02
2023-04-05T06:31:34.263Z,6.75
2023-04-05T06:32:07.201Z,7.00
2023-04-05T06:32:39.091Z,6.90
2023-04-05T06:33:12.077Z,7.25
2023-04-05T06:33:45.414Z,7.07
2023-04-05T06:34:18.156Z,8.52
2023-04-05T06:34:50.095Z,7.40
2023-04-05T06:35:23.044Z,7.32
2023-04-05T06:35:56.008Z,7.50
2023-04-05T06:36:30.154Z,6.72
2023-04-05T06:37:02.738Z,7.22
2023-04-05T06:37:35.480Z,6.95
2023-04-05T06:38:07.263Z,6.70
2023-04-05T06:38:39.114Z,7.30
2023-04-05T06:39:11.912Z,8.10
2023-04-05T06:39:43.712Z,7.35
2023-04-05T06:40:17.090Z,7.75
2023-04-05T06:40:48.868Z,6.30
2023-04-05T06:41:20.726Z,6.95
2023-04-05T06:41:53.543Z,6.90
2023-04-05T06:42:27.767Z,6.50
2023-04-05T06:43:00.831Z,7.00
2023-04-05T06:43:32.705Z,7.28
2023-04-05T06:44:05.693Z,7.50
2023-04-05T06:44:37.501Z,6.82
2023-04-05T06:45:11.581Z,7.70
2023-04-05T06:45:43.487Z,7.15
2023-04-05T06:46:16.299Z,7.07
2023-04-05T06:46:48.196Z,6.60
2023-04-05T06:47:19.988Z,7.07
2023-04-05T06:47:52.759Z,6.70
2023-04-05T06:48:24.798Z,6.85
2023-04-05T06:49:02.296Z,6.47
2023-04-05T06:49:35.430Z,8.95
2023-04-05T06:50:08.978Z,7.53
2023-04-05T06:50:41.941Z,7.80
2023-04-05T06:51:14.099Z,7.50
2023-04-05T06:51:46.057Z,7.25
2023-04-05T06:52:18.838Z,6.75
2023-04-05T06:52:50.629Z,8.07
2023-04-05T06:53:23.416Z,7.10
2023-04-05T06:53:55.386Z,7.20
2023-04-05T06:54:28.130Z,7.57
2023-04-05T06:55:00.269Z,8.10
2023-04-05T06:55:32.721Z,7.22
2023-04-05T06:56:05.801Z,7.05
2023-04-05T06:56:37.748Z,7.38
2023-04-05T06:57:10.560Z,6.10
2023-04-05T06:57:42.369Z,7.10
2023-04-05T06:58:14.195Z,6.70
2023-04-05T06:58:47.062Z,7.03
2023-04-05T06:59:18.907Z,8.48
2023-04-05T06:59:51.635Z,8.15
2023-04-05T07:00:24.770Z,7.30
2023-04-05T07:00:56.695Z,6.47
2023-04-05T07:01:29.439Z,7.90
2023-04-05T07:02:02.291Z,6.60
2023-04-05T07:02:36.089Z,6.80
2023-04-05T07:03:08.187Z,7.15
2023-04-05T07:03:41.090Z,6.53
2023-04-05T07:04:14.506Z,7.57
2023-04-05T07:04:48.255Z,7.10
2023-04-05T07:05:20.168Z,7.28
2023-04-05T07:05:53.261Z,7.00
2023-04-05T07:06:26.158Z,6.85
2023-04-05T07:06:59.896Z,7.15
2023-04-05T07:07:31.971Z,6.68
2023-04-05T07:08:04.917Z,6.45
2023-04-05T07:08:36.712Z,7.00
2023-04-05T07:09:09.496Z,6.43
2023-04-05T07:09:41.318Z,7.47
2023-04-05T07:10:13.119Z,6.32
2023-04-05T07:10:45.930Z,6.75
2023-04-05T07:11:17.787Z,6.50
2023-04-05T07:11:49.579Z,5.88
2023-04-05T07:12:22.332Z,6.63
2023-04-05T07:12:54.148Z,6.10
2023-04-05T07:13:27.276Z,6.63
2023-04-05T07:13:59.215Z,7.53
2023-04-05T07:14:31.585Z,6.53
2023-04-05T07:15:05.420Z,6.53
2023-04-05T07:15:37.275Z,6.20
2023-04-05T07:16:09.167Z,6.63
2023-04-05T07:16:42.044Z,6.72
2023-04-05T07:17:46.674Z,6.78
2023-04-05T07:18:19.374Z,6.97
2023-04-05T07:18:52.173Z,5.97
2023-04-05T07:19:26.156Z,5.97
2023-04-05T07:19:57.961Z,7.00
2023-04-05T07:20:30.695Z,6.88
2023-04-05T07:21:04.004Z,6.30
2023-04-05T07:21:36.913Z,7.28
2023-04-05T07:22:10.176Z,7.10
2023-04-05T07:22:43.053Z,6.82